createdAt,value
2022-12-16T00:00:08.887Z,66.86
2022-12-16T00:02:36.517Z,66.80
2022-12-16T00:05:04.296Z,66.94
2022-12-16T00:07:31.592Z,67.10
2022-12-16T00:09:58.922Z,67.87
2022-12-16T00:12:26.521Z,68.02
2022-12-16T00:14:53.820Z,67.40
2022-12-16T00:17:22.188Z,67.88
2022-12-16T00:19:49.506Z,68.03
2022-12-16T00:22:17.813Z,67.24
2022-12-16T00:24:45.259Z,67.28
2022-12-16T00:27:12.619Z,67.45
2022-12-16T00:29:39.884Z,67.95
2022-12-16T00:32:07.202Z,67.45
2022-12-16T00:34:35.302Z,68.22
2022-12-16T00:37:02.636Z,68.69
2022-12-16T00:39:29.941Z,68.88
2022-12-16T00:41:57.140Z,69.03
2022-12-16T00:44:24.406Z,69.08
2022-12-16T00:46:51.624Z,69.50
2022-12-16T00:49:19.062Z,69.76
2022-12-16T00:51:46.371Z,69.53
2022-12-16T00:54:13.598Z,69.36
2022-12-16T00:56:41.330Z,69.35
2022-12-16T00:59:08.562Z,68.68
2022-12-16T01:01:36.061Z,69.23
2022-12-16T01:04:03.544Z,68.91
2022-12-16T01:06:30.750Z,68.90
2022-12-16T01:08:58.054Z,69.58
2022-12-16T01:11:26.842Z,69.81
2022-12-16T01:13:55.096Z,69.25
2022-12-16T01:16:22.813Z,71.14
2022-12-16T01:18:50.105Z,71.03
2022-12-16T01:21:17.582Z,71.91
2022-12-16T01:23:44.849Z,73.25
2022-12-16T01:26:16.614Z,72.46
2022-12-16T01:28:44.679Z,71.90
2022-12-16T01:31:13.020Z,70.31
2022-12-16T01:33:40.611Z,70.07
2022-12-16T01:36:09.058Z,69.86
2022-12-16T01:38:36.840Z,71.34
2022-12-16T01:41:04.904Z,70.98
2022-12-16T01:43:35.891Z,72.07
2022-12-16T01:46:09.750Z,72.45
2022-12-16T01:48:45.618Z,72.39
2022-12-16T01:51:29.684Z,72.13
2022-12-16T01:54:00.340Z,71.02
2022-12-16T01:56:29.056Z,70.79
2022-12-16T01:58:57.338Z,73.51
2022-12-16T02:01:24.859Z,73.34
2022-12-16T02:03:53.029Z,73.38
2022-12-16T02:06:21.556Z,73.15
2022-12-16T02:08:53.430Z,74.06
2022-12-16T02:11:28.044Z,74.80
2022-12-16T02:14:04.378Z,75.52
2022-12-16T02:16:33.513Z,76.29
2022-12-16T02:19:22.393Z,75.87
2022-12-16T02:22:11.526Z,76.32
2022-12-16T02:25:00.384Z,76.53
2022-12-16T02:27:58.529Z,75.86
2022-12-16T02:30:46.059Z,76.19
2022-12-16T02:33:51.251Z,75.99
2022-12-16T02:36:26.577Z,76.19
2022-12-16T02:39:24.548Z,76.75
2022-12-16T02:41:58.653Z,76.26
2022-12-16T02:44:39.991Z,76.54
2022-12-16T02:47:07.222Z,76.71
2022-12-16T02:49:34.429Z,77.05
2022-12-16T02:52:02.126Z,76.61
2022-12-16T02:54:29.658Z,77.17
2022-12-16T02:57:18.427Z,75.65
2022-12-16T03:00:00.793Z,74.93
2022-12-16T03:02:41.683Z,76.38
2022-12-16T03:05:17.031Z,75.89
2022-12-16T03:07:45.221Z,75.80
2022-12-16T03:10:16.653Z,77.40
2022-12-16T03:12:45.664Z,77.85
2022-12-16T03:15:18.368Z,78.77
2022-12-16T03:17:48.402Z,79.30
2022-12-16T03:20:19.599Z,80.21
2022-12-16T03:22:48.297Z,79.98
2022-12-16T03:25:16.440Z,79.85
2022-12-16T03:28:29.858Z,79.67
2022-12-16T03:31:04.611Z,78.97
2022-12-16T03:33:48.377Z,78.73
2022-12-16T03:36:20.118Z,79.29
2022-12-16T03:38:47.609Z,79.78
2022-12-16T03:41:16.538Z,78.80
2022-12-16T03:43:43.951Z,78.42
2022-12-16T03:46:12.371Z,79.15
2022-12-16T03:48:46.384Z,80.08
2022-12-16T03:51:13.931Z,79.95
2022-12-16T03:53:41.153Z,79.35
2022-12-16T03:56:09.100Z,79.84
2022-12-16T03:58:37.935Z,80.44
2022-12-16T04:01:05.412Z,80.71
2022-12-16T04:03:33.087Z,79.97
2022-12-16T04:06:00.650Z,80.34
2022-12-16T04:08:27.983Z,79.17
2022-12-16T04:11:14.320Z,79.47
2022-12-16T04:14:00.155Z,78.71
2022-12-16T04:16:46.691Z,79.04
2022-12-16T04:19:53.675Z,79.31
2022-12-16T04:22:59.295Z,80.13
2022-12-16T04:25:34.889Z,80.16
2022-12-16T04:28:02.627Z,80.40
2022-12-16T04:30:34.872Z,80.37
2022-12-16T04:33:27.642Z,80.35
2022-12-16T04:36:13.549Z,79.66
2022-12-16T04:38:59.504Z,80.16
2022-12-16T04:41:45.403Z,81.13
2022-12-16T04:44:31.992Z,81.19
2022-12-16T04:47:18.182Z,81.14
2022-12-16T04:50:04.126Z,80.44
2022-12-16T04:52:49.855Z,80.45
2022-12-16T04:55:36.009Z,80.16
2022-12-16T04:58:22.276Z,80.59
2022-12-16T05:01:08.585Z,80.83
2022-12-16T05:03:54.564Z,81.01
2022-12-16T05:06:40.628Z,79.97
2022-12-16T05:09:26.400Z,79.40
2022-12-16T05:12:12.585Z,80.52
2022-12-16T05:14:59.051Z,80.76
2022-12-16T05:17:44.940Z,81.29
2022-12-16T05:20:30.819Z,81.58
2022-12-16T05:23:16.665Z,81.55
2022-12-16T05:26:02.662Z,80.66
2022-12-16T05:28:48.617Z,81.30
2022-12-16T05:31:34.541Z,81.58
2022-12-16T05:34:20.268Z,81.22
2022-12-16T05:37:06.195Z,81.41
2022-12-16T05:39:51.929Z,81.30
2022-12-16T05:42:37.976Z,81.98
2022-12-16T05:45:24.158Z,82.05
2022-12-16T05:48:09.857Z,82.32
2022-12-16T05:50:58.170Z,82.75
2022-12-16T05:53:43.996Z,83.88
2022-12-16T05:56:30.064Z,84.66
2022-12-16T05:59:16.077Z,85.14
2022-12-16T06:02:01.972Z,84.91
2022-12-16T06:04:48.076Z,84.44
2022-12-16T06:07:34.214Z,83.66
2022-12-16T06:10:20.126Z,83.71
2022-12-16T06:13:06.259Z,84.24
2022-12-16T06:15:52.268Z,85.46
2022-12-16T06:18:38.432Z,85.77
2022-12-16T06:21:24.125Z,86.08
2022-12-16T06:24:09.871Z,85.65
2022-12-16T06:26:55.957Z,85.51
2022-12-16T06:29:41.764Z,85.02
2022-12-16T06:32:27.584Z,85.84
2022-12-16T06:35:13.645Z,85.89
2022-12-16T06:37:59.629Z,86.44
2022-12-16T06:40:45.744Z,86.36
2022-12-16T06:43:31.946Z,85.81
2022-12-16T06:46:18.114Z,87.99
2022-12-16T06:49:04.025Z,86.40
2022-12-16T06:51:49.950Z,85.32
2022-12-16T06:54:35.973Z,85.41
2022-12-16T06:57:22.033Z,85.07
2022-12-16T07:00:07.747Z,85.59
2022-12-16T07:02:54.787Z,85.45
2022-12-16T07:05:41.014Z,84.51
2022-12-16T07:08:26.912Z,83.23
2022-12-16T07:11:17.172Z,82.62
2022-12-16T07:14:03.422Z,81.46
2022-12-16T07:16:49.469Z,82.95
2022-12-16T07:19:35.769Z,83.00
2022-12-16T07:22:21.745Z,84.19
2022-12-16T07:25:07.569Z,84.99
2022-12-16T07:27:53.617Z,85.54
2022-12-16T07:30:39.875Z,87.71
2022-12-16T07:33:25.748Z,90.31
2022-12-16T07:36:11.703Z,88.83
2022-12-16T07:38:57.485Z,88.18
2022-12-16T07:41:43.432Z,87.78
2022-12-16T07:44:29.829Z,83.83
2022-12-16T07:47:15.620Z,79.38
2022-12-16T07:50:01.728Z,78.10
2022-12-16T07:52:47.958Z,76.96
2022-12-16T07:55:33.814Z,79.68
2022-12-16T07:58:19.853Z,81.37
2022-12-16T08:01:09.366Z,82.68
2022-12-16T08:03:55.922Z,84.08
2022-12-16T08:06:42.510Z,84.76
2022-12-16T08:09:28.571Z,86.04
2022-12-16T08:12:15.095Z,86.10
2022-12-16T08:15:01.020Z,87.20
2022-12-16T08:17:46.957Z,87.46
2022-12-16T08:20:33.289Z,87.41
2022-12-16T08:23:19.382Z,88.17
2022-12-16T08:26:05.713Z,87.93
2022-12-16T08:28:52.201Z,88.00
2022-12-16T08:31:39.142Z,87.32
2022-12-16T08:34:24.786Z,87.18
2022-12-16T08:37:10.933Z,87.21
2022-12-16T08:40:18.011Z,88.49
2022-12-16T08:43:07.852Z,88.51
2022-12-16T08:45:57.087Z,87.80
2022-12-16T08:48:43.119Z,88.80
2022-12-16T08:51:28.931Z,88.28
2022-12-16T08:54:15.110Z,86.62
2022-12-16T08:57:00.848Z,85.76
2022-12-16T08:59:46.863Z,85.91
2022-12-16T09:02:32.980Z,85.03
2022-12-16T09:05:19.373Z,84.59
2022-12-16T09:08:05.610Z,85.05
2022-12-16T09:10:58.148Z,84.37
2022-12-16T09:13:44.308Z,84.12
2022-12-16T09:16:30.611Z,84.85
2022-12-16T09:19:17.183Z,84.61
2022-12-16T09:22:07.941Z,84.35
2022-12-16T09:24:54.103Z,85.33
2022-12-16T09:27:42.417Z,84.40
2022-12-16T09:30:29.415Z,83.59
2022-12-16T09:33:15.257Z,83.30
2022-12-16T09:36:01.249Z,83.33
2022-12-16T09:38:47.921Z,84.13
2022-12-16T09:42:02.981Z,83.66
2022-12-16T09:44:58.415Z,83.73
2022-12-16T09:48:15.593Z,82.85
2022-12-16T09:51:02.782Z,82.06
2022-12-16T09:53:52.069Z,81.27
2022-12-16T09:56:42.040Z,81.53
2022-12-16T09:59:32.061Z,81.65
2022-12-16T10:02:18.537Z,81.04
2022-12-16T10:05:09.964Z,81.88
2022-12-16T10:08:01.176Z,81.43
2022-12-16T10:11:19.906Z,81.05
2022-12-16T10:14:28.647Z,81.29
2022-12-16T10:17:39.182Z,80.97
2022-12-16T10:20:55.679Z,81.36
2022-12-16T10:23:57.229Z,80.48
2022-12-16T10:26:48.999Z,80.64
2022-12-16T10:29:40.836Z,81.49
2022-12-16T10:32:50.171Z,81.38
2022-12-16T10:35:42.705Z,80.71
2022-12-16T10:38:41.311Z,80.60
2022-12-16T10:41:28.100Z,80.58
2022-12-16T10:44:14.712Z,81.07
2022-12-16T10:47:00.781Z,81.49
2022-12-16T10:49:50.856Z,81.77
2022-12-16T10:52:40.585Z,82.24
2022-12-16T10:55:36.414Z,82.22
2022-12-16T10:58:41.796Z,82.18
2022-12-16T11:01:44.242Z,82.12
2022-12-16T11:04:50.234Z,81.56
2022-12-16T11:07:44.526Z,82.09
2022-12-16T11:11:00.652Z,82.04
2022-12-16T11:13:47.809Z,81.28
2022-12-16T11:16:47.590Z,80.94
2022-12-16T11:19:42.470Z,80.62
2022-12-16T11:22:40.221Z,81.17
2022-12-16T11:25:36.691Z,81.81
2022-12-16T11:28:36.015Z,81.70
2022-12-16T11:31:28.874Z,81.64
2022-12-16T11:34:16.910Z,81.28
2022-12-16T11:37:04.121Z,80.78
2022-12-16T11:40:06.956Z,80.86
2022-12-16T11:42:53.054Z,80.73
2022-12-16T11:45:40.060Z,79.83
2022-12-16T11:48:46.438Z,79.94
2022-12-16T11:51:33.390Z,80.29
2022-12-16T11:54:26.723Z,79.26
2022-12-16T11:57:13.541Z,79.27
2022-12-16T12:00:03.670Z,79.16
2022-12-16T12:03:01.556Z,78.75
2022-12-16T12:06:10.151Z,79.48
2022-12-16T12:09:09.429Z,80.30
2022-12-16T12:12:12.266Z,81.65
2022-12-16T12:15:13.942Z,81.81
2022-12-16T12:18:06.255Z,80.43
2022-12-16T12:21:00.893Z,79.89
2022-12-16T12:24:25.691Z,78.75
2022-12-16T12:27:19.168Z,78.51
2022-12-16T12:30:16.484Z,78.04
2022-12-16T12:33:15.884Z,77.11
2022-12-16T12:36:20.709Z,76.39
2022-12-16T12:39:11.191Z,76.44
2022-12-16T12:42:19.297Z,76.21
2022-12-16T12:45:30.354Z,76.34
2022-12-16T12:48:42.453Z,77.71
2022-12-16T12:51:59.127Z,78.35
2022-12-16T12:54:53.367Z,77.97
2022-12-16T12:57:42.329Z,77.80
2022-12-16T13:00:41.230Z,76.32
2022-12-16T13:03:48.554Z,77.17
2022-12-16T13:06:35.699Z,76.92
2022-12-16T13:09:45.236Z,76.87
2022-12-16T13:12:31.078Z,76.78
2022-12-16T13:15:23.179Z,77.69
2022-12-16T13:18:18.206Z,77.83
2022-12-16T13:21:44.590Z,77.02
2022-12-16T13:24:58.005Z,77.22
2022-12-16T13:27:45.435Z,76.50
2022-12-16T13:30:31.310Z,77.44
2022-12-16T13:33:25.381Z,76.83
2022-12-16T13:36:16.425Z,77.08
2022-12-16T13:39:09.966Z,76.30
2022-12-16T13:41:55.866Z,76.26
2022-12-16T13:45:00.305Z,75.97
2022-12-16T13:48:12.630Z,75.39
2022-12-16T13:51:00.520Z,75.51
2022-12-16T13:53:48.168Z,74.00
2022-12-16T13:56:42.247Z,75.07
2022-12-16T13:59:43.767Z,73.77
2022-12-16T14:02:58.824Z,73.67
2022-12-16T14:05:47.963Z,72.70
2022-12-16T14:08:36.068Z,71.08
2022-12-16T14:11:32.942Z,70.67
2022-12-16T14:14:40.781Z,69.57
2022-12-16T14:17:33.703Z,69.74
2022-12-16T14:20:49.225Z,69.61
2022-12-16T14:23:58.568Z,70.02
2022-12-16T14:26:45.404Z,69.72
2022-12-16T14:29:40.739Z,69.65
2022-12-16T14:32:42.132Z,69.48
2022-12-16T14:35:46.513Z,69.00
2022-12-16T14:38:47.649Z,69.31
2022-12-16T14:41:36.508Z,69.81
2022-12-16T14:44:24.280Z,70.18
2022-12-16T14:47:10.680Z,69.12
2022-12-16T14:50:10.519Z,68.70
2022-12-16T14:52:57.107Z,67.40
2022-12-16T14:55:53.385Z,67.46
2022-12-16T14:58:41.858Z,68.15
2022-12-16T15:01:33.966Z,67.71
2022-12-16T15:04:23.026Z,68.25
2022-12-16T15:07:11.785Z,67.26
2022-12-16T15:10:04.442Z,68.67
2022-12-16T15:12:53.875Z,68.42
2022-12-16T15:16:04.158Z,67.41
2022-12-16T15:18:57.727Z,67.00
2022-12-16T15:21:44.233Z,67.32
2022-12-16T15:24:35.782Z,67.41
2022-12-16T15:27:40.264Z,67.26
2022-12-16T15:30:54.172Z,67.11
2022-12-16T15:33:43.829Z,66.84
2022-12-16T15:36:43.536Z,67.20
2022-12-16T15:39:41.545Z,67.04
2022-12-16T15:42:43.585Z,67.63
2022-12-16T15:45:38.802Z,68.21
2022-12-16T15:48:31.724Z,68.38
2022-12-16T15:51:17.713Z,67.39
2022-12-16T15:54:04.141Z,68.56
2022-12-16T15:57:02.914Z,69.56
2022-12-16T15:59:51.481Z,70.35
2022-12-16T16:02:44.557Z,69.96
2022-12-16T16:05:31.464Z,70.61
2022-12-16T16:08:17.393Z,70.52
2022-12-16T16:11:03.955Z,70.88
2022-12-16T16:13:50.528Z,70.16
2022-12-16T16:16:36.684Z,70.23
2022-12-16T16:19:23.565Z,70.11
2022-12-16T16:22:09.664Z,70.67
2022-12-16T16:24:55.590Z,70.35
2022-12-16T16:27:41.814Z,70.32
2022-12-16T16:30:29.577Z,70.09
2022-12-16T16:33:15.822Z,70.73
2022-12-16T16:36:01.659Z,72.20
2022-12-16T16:38:47.674Z,72.79
2022-12-16T16:41:34.481Z,71.92
2022-12-16T16:44:20.529Z,71.93
2022-12-16T16:47:06.885Z,72.05
2022-12-16T16:49:57.076Z,72.39
2022-12-16T16:52:44.396Z,72.59
2022-12-16T16:55:36.690Z,74.42
2022-12-16T16:58:44.693Z,74.90
2022-12-16T17:01:32.408Z,75.55
2022-12-16T17:04:18.297Z,76.39
2022-12-16T17:07:04.675Z,75.65
2022-12-16T17:09:50.826Z,77.23
2022-12-16T17:12:48.520Z,77.24
2022-12-16T17:15:47.951Z,76.48
2022-12-16T17:18:36.452Z,76.79
2022-12-16T17:21:22.620Z,76.77
2022-12-16T17:24:08.662Z,77.11
2022-12-16T17:27:00.309Z,75.96
2022-12-16T17:29:46.817Z,75.65
2022-12-16T17:32:33.237Z,75.68
2022-12-16T17:35:19.590Z,74.85
2022-12-16T17:38:05.885Z,74.66
2022-12-16T17:40:52.075Z,75.57
2022-12-16T17:43:38.267Z,75.27
2022-12-16T17:46:26.070Z,75.78
2022-12-16T17:49:13.462Z,75.67
2022-12-16T17:52:01.065Z,75.79
2022-12-16T17:54:47.484Z,75.64
2022-12-16T17:57:33.661Z,75.80
2022-12-16T18:00:20.073Z,75.77
2022-12-16T18:03:06.900Z,75.82
2022-12-16T18:05:52.781Z,76.17
2022-12-16T18:08:38.828Z,75.71
2022-12-16T18:11:39.031Z,75.41
2022-12-16T18:14:25.311Z,75.49
2022-12-16T18:17:11.471Z,75.72
2022-12-16T18:19:57.816Z,76.20
2022-12-16T18:22:44.125Z,76.10
2022-12-16T18:25:30.632Z,75.36
2022-12-16T18:28:19.570Z,75.58
2022-12-16T18:31:05.901Z,75.65
2022-12-16T18:33:52.716Z,74.81
2022-12-16T18:36:38.924Z,74.47
2022-12-16T18:39:25.412Z,75.31
2022-12-16T18:42:11.531Z,75.46
2022-12-16T18:45:01.251Z,74.36
2022-12-16T18:47:47.608Z,73.64
2022-12-16T18:50:37.751Z,73.85
2022-12-16T18:53:24.656Z,73.88
2022-12-16T18:56:22.719Z,73.38
2022-12-16T18:59:09.146Z,75.21
2022-12-16T19:01:55.321Z,74.71
2022-12-16T19:04:41.784Z,75.00
2022-12-16T19:07:31.726Z,74.77
2022-12-16T19:10:20.098Z,74.69
2022-12-16T19:13:06.403Z,76.08
2022-12-16T19:15:52.849Z,76.68
2022-12-16T19:18:39.214Z,76.66
2022-12-16T19:21:25.282Z,77.01
2022-12-16T19:24:12.096Z,76.97
2022-12-16T19:26:58.267Z,77.41
2022-12-16T19:29:44.309Z,76.99
2022-12-16T19:32:30.359Z,76.59
2022-12-16T19:35:27.015Z,77.45
2022-12-16T19:38:13.357Z,77.97
2022-12-16T19:41:08.687Z,78.14
2022-12-16T19:44:00.150Z,78.29
2022-12-16T19:46:49.663Z,77.25
2022-12-16T19:49:40.708Z,77.04
2022-12-16T19:52:30.231Z,76.49
2022-12-16T19:55:17.710Z,76.54
2022-12-16T19:58:23.892Z,76.72
2022-12-16T20:01:10.549Z,77.63
2022-12-16T20:03:58.492Z,77.93
2022-12-16T20:06:44.965Z,78.06
2022-12-16T20:09:31.707Z,78.36
2022-12-16T20:12:17.341Z,78.70
2022-12-16T20:15:03.223Z,79.91
2022-12-16T20:17:49.332Z,80.88
2022-12-16T20:20:35.599Z,80.86
2022-12-16T20:23:21.908Z,80.14
2022-12-16T20:26:15.135Z,79.26
2022-12-16T20:29:01.795Z,79.98
2022-12-16T20:31:48.405Z,80.11
2022-12-16T20:34:34.526Z,79.75
2022-12-16T20:37:20.594Z,80.06
2022-12-16T20:40:06.384Z,80.26
2022-12-16T20:42:53.525Z,79.64
2022-12-16T20:45:39.730Z,79.86
2022-12-16T20:48:32.394Z,80.75
2022-12-16T20:54:29.309Z,81.79
2022-12-16T20:57:15.521Z,82.19
2022-12-16T21:00:01.585Z,81.41
2022-12-16T21:02:48.975Z,81.64
2022-12-16T21:05:35.517Z,82.53
2022-12-16T21:08:21.696Z,84.11
2022-12-16T21:11:07.613Z,84.87
2022-12-16T21:13:56.296Z,83.90
2022-12-16T21:16:43.062Z,84.40
2022-12-16T21:19:33.347Z,84.07
2022-12-16T21:22:20.220Z,83.54
2022-12-16T21:25:06.164Z,83.26
2022-12-16T21:28:05.749Z,82.92
2022-12-16T21:30:51.865Z,83.49
2022-12-16T21:33:39.328Z,82.84
2022-12-16T21:36:25.615Z,82.71
2022-12-16T21:39:11.578Z,81.87
2022-12-16T21:41:57.588Z,81.35
2022-12-16T21:44:43.790Z,81.36
2022-12-16T21:47:29.581Z,81.83
2022-12-16T21:50:15.547Z,81.73
2022-12-16T21:53:01.581Z,82.04
2022-12-16T21:55:47.521Z,81.40
2022-12-16T21:58:34.398Z,81.87
2022-12-16T22:01:20.625Z,82.34
2022-12-16T22:04:06.691Z,80.83
2022-12-16T22:06:53.752Z,80.48
2022-12-16T22:09:40.013Z,80.45
2022-12-16T22:12:26.573Z,79.73
2022-12-16T22:15:12.673Z,79.88
2022-12-16T22:17:58.993Z,79.28
2022-12-16T22:20:45.616Z,79.33
2022-12-16T22:23:31.258Z,78.19
2022-12-16T22:26:18.412Z,78.33
2022-12-16T22:29:04.623Z,76.86
2022-12-16T22:31:50.438Z,77.20
2022-12-16T22:34:36.783Z,77.88
2022-12-16T22:37:22.650Z,78.13
2022-12-16T22:40:08.774Z,77.83
2022-12-16T22:42:56.315Z,77.47
2022-12-16T22:45:41.883Z,77.14
2022-12-16T22:48:30.694Z,77.71
2022-12-16T22:51:16.712Z,77.67
2022-12-16T22:54:10.563Z,77.55
2022-12-16T22:56:57.413Z,77.67
2022-12-16T22:59:43.472Z,76.69
2022-12-16T23:02:29.544Z,76.33
2022-12-16T23:05:15.846Z,76.49
2022-12-16T23:08:02.122Z,76.96
2022-12-16T23:10:48.160Z,75.99
2022-12-16T23:13:34.657Z,76.84
2022-12-16T23:16:20.409Z,77.28
2022-12-16T23:19:06.683Z,75.77
2022-12-16T23:21:52.688Z,75.99
2022-12-16T23:24:39.532Z,75.56
2022-12-16T23:27:25.773Z,76.40
2022-12-16T23:30:11.632Z,77.75
2022-12-16T23:32:58.143Z,77.47
2022-12-16T23:35:44.525Z,77.33
2022-12-16T23:38:30.619Z,77.17
2022-12-16T23:41:25.439Z,77.81
2022-12-16T23:44:11.829Z,76.36
2022-12-16T23:46:57.783Z,75.70
2022-12-16T23:49:43.696Z,76.53
2022-12-16T23:52:30.116Z,76.84
2022-12-16T23:55:16.194Z,76.46
2022-12-16T23:58:02.068Z,75.99
